Station: Rolleston Airport

  Atmospheric Gas Attenuation - ITU Rec 676-11   --------------- db/100km ---------------
Date Time Temp RH % AH g/m3 Dew Point Wind Direction Speed kph Gust kph Barometer mB Rainfall Since 9am 24GHz 47GHz 76GHz 122GHz 134GHz 241GHz
06 18:50 31.3 24 7.81 8.3 7 7 1005.6 0 17.2 20.2 29.4 77.0 70.4 242.5
06 18:40 31.7 23 7.64 8 6 6 1005.4 0 16.8 19.9 28.7 75.2 68.4 235.4
06 18:30 32.1 23 7.81 8.4 6 7 1005.3 0 17.1 20.0 29.1 76.2 69.7 240.2
06 18:20 32.9 22 7.79 8.3 6 6 1005.3 0 17.1 19.8 28.8 75.3 68.9 237.2
06 18:10 33 22 7.83 8.4 6 6 1005.1 0 17.1 19.8 28.8 75.6 69.2 238.3
06 18:00 33.2 20 7.2 7.2 6 11 1005.1 0 15.8 19.0 26.9 70.4 62.9 216.1
06 17:50 34.4 18 6.9 6.6 0 0 1005 0 15.2 18.4 25.7 67.1 59.1 203.1
06 17:40 34.5 18 6.94 6.7 4 4 1004.9 0 15.3 18.4 25.7 67.3 59.4 204.1
06 17:30 34.7 18 7.01 6.9 2 6 1004.9 0 15.4 18.5 25.9 67.7 59.9 206.0
06 17:20 34.6 17 6.59 6 4 4 1004.9 0 14.5 18.0 24.7 64.6 56.1 192.4
06 17:10 36 18 7.5 7.9 2 4 1004.8 0 16.3 18.8 26.9 70.4 63.6 219.0
06 17:00 34.9 17 6.69 6.2 4 11 1004.7 0 14.7 18.1 24.9 65.1 56.8 194.9
06 16:50 35.6 17 6.94 6.8 6 7 1004.8 0 15.2 18.2 25.4 66.5 58.6 201.5
06 16:40 34.7 17 6.62 6 7 7 1004.8 0 14.6 18.0 24.8 64.7 56.3 193.1
06 16:30 35.2 17 6.79 6.5 9 15 1004.8 0 14.9 18.1 25.1 65.6 57.5 197.5
06 16:20 35.6 17 6.94 6.8 7 9 1004.7 0 15.2 18.2 25.4 66.4 58.6 201.5
06 16:10 35.6 17 6.94 6.8 13 15 1004.7 0 15.2 18.2 25.4 66.4 58.6 201.5
06 16:00 34.5 17 6.55 5.9 7 19 1004.7 0 14.5 18.0 24.6 64.3 55.8 191.3
06 15:50 35.8 17 7.01 6.9 15 20 1004.7 0 15.4 18.3 25.6 66.8 59.2 203.3
06 15:40 35.7 18 7.38 7.7 13 17 1004.6 0 16.1 18.7 26.6 69.7 62.7 215.7
06 15:30 35.8 17 7.01 7 9 22 1004.7 0 15.4 18.3 25.6 66.8 59.2 203.3
06 15:20 35.4 17 6.87 6.6 9 15 1004.8 0 15.1 18.2 25.3 66.1 58.1 199.7
06 15:10 35.4 17 6.87 6.6 13 17 1004.8 0 15.1 18.2 25.3 66.1 58.1 199.7
06 15:00 34.8 18 7.05 7 13 26 1004.7 0 15.5 18.5 26.0 67.9 60.2 207.0
06 14:50 34.6 18 6.97 6.8 9 11 1004.7 0 15.3 18.4 25.8 67.5 59.6 204.9
06 14:40 35 18 7.12 7.1 13 19 1004.9 0 15.6 18.6 26.1 68.3 60.8 208.9
06 14:30 35.3 18 7.23 7.4 11 22 1004.9 0 15.8 18.6 26.3 68.9 61.6 211.8
06 14:20 34.8 17 6.65 6.1 19 22 1005 0 14.7 18.0 24.8 64.9 56.5 193.9
06 14:10 34.9 17 6.69 6.2 11 17 1005.1 0 14.7 18.1 24.9 65.1 56.8 195.0
06 14:00 34.6 16 6.2 5.1 11 24 1005.3 0 13.8 17.6 23.7 61.7 52.5 179.8
06 13:50 35.1 17 6.76 6.4 20 24 1005.3 0 14.9 18.1 25.1 65.5 57.3 196.9
06 13:40 34.3 17 6.48 5.7 11 20 1005.4 0 14.3 18.0 24.5 64.0 55.3 189.5
06 13:30 34.8 17 6.65 6.2 9 24 1005.5 0 14.7 18.1 24.9 64.9 56.5 194.0
06 13:20 34.2 17 6.45 5.6 9 13 1005.8 0 14.3 18.0 24.5 63.9 55.1 188.8
06 13:10 34.6 17 6.59 6 13 20 1006 0 14.5 18.0 24.8 64.7 56.1 192.6
06 13:00 34.2 17 6.45 5.7 11 19 1006.1 0 14.3 18.0 24.5 63.9 55.1 188.9
06 12:50 35 18 7.12 7.1 15 19 1006.2 0 15.6 18.6 26.2 68.4 60.8 209.1
06 12:40 34.6 18 6.97 6.8 11 17 1006.3 0 15.3 18.5 25.8 67.6 59.7 205.1
06 12:30 34 18 6.76 6.3 6 13 1006.4 0 14.9 18.4 25.4 66.4 58.2 199.6
06 12:20 33.6 18 6.62 6 11 13 1006.5 0 14.6 18.3 25.2 65.7 57.1 195.9
06 12:10 34.1 19 7.17 7.2 11 13 1006.6 0 15.7 18.8 26.6 69.5 62.0 213.1
06 12:00 33.7 18 6.65 6.1 6 13 1006.8 0 14.7 18.3 25.2 65.9 57.3 196.7
06 11:50 33.1 18 6.44 5.6 9 13 1007 0 14.3 18.2 24.8 64.7 55.8 191.1
06 11:40 33.1 18 6.44 5.6 15 17 1007.2 0 14.3 18.2 24.8 64.7 55.8 191.2
06 11:30 32.7 18 6.31 5.3 11 20 1007.2 0 14.0 18.1 24.5 64.0 54.8 187.7
06 11:20 33.1 18 6.44 5.6 6 7 1007.3 0 14.3 18.2 24.8 64.7 55.8 191.2
06 11:10 33.2 20 7.2 7.2 0 4 1007.3 0 15.8 19.1 27.0 70.6 63.0 216.5
06 11:00 32.5 19 6.59 5.9 7 17 1007.5 0 14.6 18.5 25.4 66.4 57.6 197.6
06 10:50 32.6 19 6.62 6 9 11 1007.6 0 14.7 18.5 25.5 66.5 57.8 198.4
06 10:40 32 20 6.75 6.2 7 13 1007.7 0 15.0 18.8 26.0 68.0 59.5 204.2
06 10:30 32.1 21 7.13 7 9 20 1007.8 0 15.7 19.2 27.1 71.0 63.2 217.0
06 10:20 31.2 20 6.47 5.5 6 7 1007.9 0 14.4 18.6 25.5 66.5 57.4 196.6
06 10:10 31.6 23 7.6 7.9 11 11 1008 0 16.7 19.9 28.7 75.2 68.2 234.8
06 10:00 30.5 24 7.48 7.7 6 13 1008 0 16.5 20.0 28.7 75.2 67.9 233.6
06 09:50 30.2 25 7.67 8 9 11 1008.1 0 16.9 20.3 29.4 77.0 70.1 241.2
06 09:40 29.7 27 8.06 8.7 4 7 1008.2 0 17.7 20.9 30.8 80.8 74.6 256.9
06 09:30 29.4 28 8.22 9 4 7 1008.2 0 18.1 21.2 31.4 82.4 76.5 263.7
06 09:20 28.7 28 7.91 8.4 6 6 1008.3 0 17.5 20.9 30.7 80.5 73.9 254.5
06 09:10 28.1 30 8.2 8.9 9 9 1008.3 0 18.1 21.4 31.9 83.6 77.5 267.1
06 09:00 28 31 8.43 9.3 6 11 1008.3 0 18.6 21.8 32.7 85.7 80.1 276.2
06 08:50 27.3 33 8.64 9.6 9 11 1008.2 0 19.1 22.2 33.6 88.3 83.1 286.6
06 08:40 27.1 34 8.8 9.9 6 6 1008.2 0 19.4 22.5 34.3 89.9 85.1 293.5
06 08:30 26.3 34 8.42 9.2 7 13 1008.2 0 18.6 22.2 33.3 87.4 81.7 281.5
06 08:20 25.6 36 8.57 9.4 6 7 1008.2 0 19.0 22.5 34.1 89.5 84.1 289.8
06 08:10 25.2 40 9.31 10.6 6 6 1008.2 0 20.5 23.7 36.8 96.7 92.9 320.8
06 08:00 24.6 45 10.13 11.9 0 0 1008.1 0 22.3 25.0 40.0 105.3 103.3 357.1
06 07:50 23.6 51 10.85 13.1 0 0 1008 0 23.9 26.4 43.2 113.8 113.5 392.5
06 07:40 22.9 55 11.24 13.6 0 0 1008 0 24.7 27.2 45.1 118.8 119.4 413.2
06 07:30 21.2 60 11.12 13.1 0 0 1007.8 0 24.6 27.5 45.6 120.1 120.5 416.7
06 07:20 20.5 61 10.85 12.9 0 0 1007.7 0 24.0 27.3 44.9 118.3 118.0 408.1
06 07:10 19.8 65 11.1 13.2 0 0 1007.6 0 24.6 27.9 46.3 122.0 122.4 423.2
06 07:00 19.1 67 10.98 12.8 0 0 1007.4 0 24.4 27.9 46.2 121.8 121.9 421.3
06 06:50 18.8 67 10.79 12.5 0 0 1007.2 0 24.0 27.7 45.6 120.2 119.8 414.1
06 06:40 18.9 69 11.18 13.1 0 0 1007 0 24.8 28.3 47.2 124.2 124.8 431.6
06 06:30 17.9 70 10.69 12.4 0 0 1006.8 0 23.8 27.8 45.7 120.4 119.8 414.1
06 06:20 16.9 72 10.36 11.8 0 0 1006.7 0 23.2 27.6 45.0 118.4 116.9 403.8
06 06:10 16.9 70 10.07 11.4 0 0 1006.5 0 22.6 27.1 43.8 115.2 113.1 390.2
06 06:00 16.9 69 9.92 11.2 0 0 1006.5 0 22.3 26.9 43.2 113.6 111.1 383.3
06 05:50 16.9 68 9.78 11.1 0 0 1006.3 0 22.0 26.6 42.6 112.1 109.2 376.8
06 05:40 17.2 68 9.96 11.2 0 0 1006.1 0 22.3 26.8 43.1 113.5 111.1 383.5
06 05:30 17.8 66 10.02 11.4 0 0 1006 0 22.4 26.7 43.1 113.3 111.0 383.3
06 05:20 18.2 65 10.1 11.5 0 0 1005.9 0 22.6 26.7 43.2 113.6 111.5 385.0
06 05:10 18.6 67 10.66 12.3 2 4 1005.8 0 23.7 27.5 45.2 118.9 118.3 408.7
06 05:00 18.2 65 10.1 11.5 6 6 1005.6 0 22.6 26.7 43.1 113.5 111.5 384.9
06 04:50 18.3 63 9.85 11.3 6 6 1005.5 0 22.0 26.3 42.1 110.7 108.1 373.0
06 04:40 18.8 63 10.15 11.6 6 6 1005.4 0 22.6 26.6 43.0 113.2 111.3 384.2
06 04:10 19.3 62 10.28 11.8 6 7 1005.3 0 22.9 26.7 43.2 113.8 112.2 387.6
06 04:00 19.9 62 10.65 12.4 7 9 1005.2 0 23.7 27.1 44.4 116.8 116.1 401.3
06 03:50 19.4 64 10.68 12.4 7 7 1005.2 0 23.7 27.3 44.8 117.9 117.2 405.2
06 03:40 18.8 66 10.63 12.3 7 7 1005.2 0 23.7 27.4 44.9 118.2 117.5 406.0
06 03:30 18.7 63 10.09 11.5 6 7 1005.3 0 22.5 26.5 42.8 112.7 110.6 381.9
06 03:20 19.5 60 10.07 11.7 6 6 1005.2 0 22.4 26.3 42.3 111.3 109.2 377.1
06 03:10 20.5 59 10.5 12.2 6 7 1005.3 0 23.3 26.7 43.4 114.4 113.3 391.6
06 03:00 20.6 60 10.74 12.6 6 7 1005.3 0 23.8 27.0 44.3 116.7 116.2 401.8
06 02:50 20.4 61 10.79 12.6 6 7 1005.3 0 23.9 27.1 44.6 117.6 117.2 405.1
06 02:40 20.4 59 10.44 12.1 6 6 1005.3 0 23.2 26.6 43.3 113.9 112.7 389.4
06 02:30 21.1 59 10.87 12.8 6 6 1005.4 0 24.0 27.1 44.6 117.4 117.2 405.2
06 02:20 21.3 60 11.18 13.2 6 6 1005.4 0 24.7 27.5 45.7 120.3 120.9 418.1
06 02:10 20.9 60 10.93 12.8 7 7 1005.4 0 24.2 27.2 44.9 118.3 118.2 408.9
06 02:00 21.3 60 11.18 13.2 9 11 1005.4 0 24.7 27.5 45.7 120.3 120.9 418.1

Last Refresh: 06-Mar-2021 19:39:21

Most of the information presented on this site is sourced from the Bureau of Meteorology.  Copyright in all material sourced from the Bureau of Meteorology resides with the Commonwealth of Australia.